createdAt,value
2023-05-09T00:01:20.249Z,53.11
2023-05-09T00:03:46.740Z,53.17
2023-05-09T00:06:13.273Z,53.25
2023-05-09T00:08:39.714Z,53.40
2023-05-09T00:11:06.198Z,53.51
2023-05-09T00:13:33.417Z,53.43
2023-05-09T00:16:00.032Z,53.54
2023-05-09T00:18:26.848Z,53.65
2023-05-09T00:20:53.328Z,53.45
2023-05-09T00:23:19.882Z,53.54
2023-05-09T00:25:46.332Z,53.71
2023-05-09T00:28:12.797Z,53.54
2023-05-09T00:30:39.279Z,53.55
2023-05-09T00:33:05.825Z,53.79
2023-05-09T00:35:32.416Z,53.73
2023-05-09T00:37:58.863Z,53.73
2023-05-09T00:40:25.301Z,53.82
2023-05-09T00:42:51.766Z,53.68
2023-05-09T00:45:18.340Z,53.74
2023-05-09T00:47:44.806Z,53.80
2023-05-09T00:50:11.406Z,54.20
2023-05-09T00:52:38.849Z,54.20
2023-05-09T00:55:06.050Z,54.02
2023-05-09T00:57:32.544Z,54.05
2023-05-09T01:00:00.131Z,54.06
2023-05-09T01:02:27.666Z,54.14
2023-05-09T01:04:54.202Z,54.22
2023-05-09T01:07:33.388Z,54.45
2023-05-09T01:10:11.784Z,54.43
2023-05-09T01:13:04.693Z,54.23
2023-05-09T01:15:41.125Z,54.55
2023-05-09T01:18:14.654Z,54.73
2023-05-09T01:20:54.384Z,54.66
2023-05-09T01:23:45.172Z,54.83
2023-05-09T01:26:42.705Z,54.97
2023-05-09T01:29:33.874Z,55.04
2023-05-09T01:32:04.529Z,55.04
2023-05-09T01:34:32.575Z,55.14
2023-05-09T01:37:00.217Z,55.38
2023-05-09T01:39:27.536Z,55.18
2023-05-09T01:41:56.725Z,55.43
2023-05-09T01:44:25.258Z,55.24
2023-05-09T01:46:54.720Z,55.67
2023-05-09T01:49:22.497Z,55.85
2023-05-09T01:51:49.981Z,55.55
2023-05-09T01:54:17.578Z,55.69
2023-05-09T01:56:45.683Z,55.76
2023-05-09T01:59:14.501Z,55.59
2023-05-09T02:01:41.027Z,55.75
2023-05-09T02:04:07.629Z,55.76
2023-05-09T02:06:36.135Z,55.81
2023-05-09T02:09:02.948Z,55.80
2023-05-09T02:11:29.412Z,55.56
2023-05-09T02:13:55.901Z,55.85
2023-05-09T02:16:22.396Z,55.84
2023-05-09T02:18:48.916Z,56.22
2023-05-09T02:21:15.564Z,56.15
2023-05-09T02:23:42.101Z,56.12
2023-05-09T02:26:09.158Z,56.43
2023-05-09T02:28:36.621Z,56.22
2023-05-09T02:31:06.338Z,56.37
2023-05-09T02:33:35.803Z,56.46
2023-05-09T02:36:02.744Z,56.48
2023-05-09T02:38:29.293Z,56.46
2023-05-09T02:40:56.055Z,56.57
2023-05-09T02:43:22.567Z,56.66
2023-05-09T02:45:49.070Z,56.80
2023-05-09T02:48:15.587Z,56.68
2023-05-09T02:50:41.994Z,56.68
2023-05-09T02:53:08.467Z,56.73
2023-05-09T02:55:34.987Z,56.72
2023-05-09T02:58:12.098Z,56.76
2023-05-09T03:00:39.732Z,56.96
2023-05-09T03:03:06.324Z,57.22
2023-05-09T03:05:32.819Z,57.34
2023-05-09T03:07:59.307Z,57.39
2023-05-09T03:10:25.730Z,57.33
2023-05-09T03:12:52.252Z,57.30
2023-05-09T03:15:18.842Z,57.37
2023-05-09T03:17:45.397Z,57.42
2023-05-09T03:20:11.907Z,57.45
2023-05-09T03:22:38.429Z,57.40
2023-05-09T03:25:05.282Z,57.42
2023-05-09T03:27:32.159Z,57.37
2023-05-09T03:29:58.653Z,57.44
2023-05-09T03:32:27.013Z,57.50
2023-05-09T03:34:53.521Z,57.58
2023-05-09T03:37:20.169Z,57.66
2023-05-09T03:39:46.614Z,57.78
2023-05-09T03:42:13.077Z,57.65
2023-05-09T03:44:39.519Z,57.75
2023-05-09T03:47:06.029Z,57.70
2023-05-09T03:49:32.526Z,57.92
2023-05-09T03:51:58.969Z,57.85
2023-05-09T03:54:25.448Z,57.79
2023-05-09T03:56:51.852Z,57.67
2023-05-09T03:59:18.313Z,57.81
2023-05-09T04:01:44.825Z,57.75
2023-05-09T04:04:11.409Z,57.59
2023-05-09T04:06:38.009Z,57.58
2023-05-09T04:09:04.504Z,57.80
2023-05-09T04:11:31.001Z,57.62
2023-05-09T04:13:57.416Z,57.57
2023-05-09T04:16:24.100Z,57.64
2023-05-09T04:18:50.579Z,57.49
2023-05-09T04:21:17.174Z,57.36
2023-05-09T04:23:43.628Z,57.30
2023-05-09T04:26:10.089Z,57.25
2023-05-09T04:28:36.527Z,57.20
2023-05-09T04:31:03.145Z,57.04
2023-05-09T04:33:29.630Z,57.00
2023-05-09T04:35:56.080Z,57.00
2023-05-09T04:38:22.512Z,57.04
2023-05-09T04:40:49.160Z,57.01
2023-05-09T04:43:15.701Z,57.50
2023-05-09T04:45:42.189Z,57.63
2023-05-09T04:48:08.651Z,56.97
2023-05-09T04:50:35.116Z,56.76
2023-05-09T04:53:01.561Z,56.52
2023-05-09T04:55:27.984Z,56.43
2023-05-09T04:57:54.440Z,56.49
2023-05-09T05:00:20.895Z,56.26
2023-05-09T05:02:47.437Z,56.04
2023-05-09T05:05:13.929Z,56.06
2023-05-09T05:07:40.366Z,56.32
2023-05-09T05:10:07.374Z,56.13
2023-05-09T05:12:33.795Z,56.15
2023-05-09T05:15:00.273Z,55.75
2023-05-09T05:17:26.727Z,55.57
2023-05-09T05:19:53.215Z,56.01
2023-05-09T05:22:19.687Z,55.74
2023-05-09T05:24:46.136Z,55.56
2023-05-09T05:27:12.563Z,55.43
2023-05-09T05:29:39.010Z,55.71
2023-05-09T05:32:05.455Z,55.49
2023-05-09T05:34:31.908Z,55.42
2023-05-09T05:36:58.370Z,54.67
2023-05-09T05:39:24.865Z,54.54
2023-05-09T05:41:51.444Z,54.96
2023-05-09T05:44:17.879Z,54.51
2023-05-09T05:46:44.305Z,53.98
2023-05-09T05:49:10.753Z,53.74
2023-05-09T05:51:37.175Z,53.23
2023-05-09T05:54:03.801Z,52.67
2023-05-09T05:56:30.272Z,52.74
2023-05-09T05:58:56.763Z,52.65
2023-05-09T06:01:23.179Z,51.98
2023-05-09T06:03:49.717Z,51.85
2023-05-09T06:06:16.330Z,51.44
2023-05-09T06:08:43.083Z,51.00
2023-05-09T06:11:09.813Z,50.84
2023-05-09T06:13:36.538Z,51.08
2023-05-09T06:16:17.973Z,50.77
2023-05-09T06:18:45.895Z,50.43
2023-05-09T06:21:12.903Z,50.51
2023-05-09T06:23:47.299Z,49.29
2023-05-09T06:26:23.887Z,49.52
2023-05-09T06:28:50.423Z,48.63
2023-05-09T06:31:16.958Z,48.23
2023-05-09T06:33:43.415Z,48.10
2023-05-09T06:36:09.935Z,48.00
2023-05-09T06:38:37.906Z,48.11
2023-05-09T06:41:04.991Z,47.85
2023-05-09T06:43:31.562Z,48.17
2023-05-09T06:45:58.072Z,47.85
2023-05-09T06:48:24.892Z,47.80
2023-05-09T06:50:51.418Z,47.60
2023-05-09T06:53:18.177Z,47.06
2023-05-09T06:55:44.789Z,47.36
2023-05-09T06:58:11.452Z,47.59
2023-05-09T07:00:38.672Z,48.03
2023-05-09T07:03:05.303Z,47.96
2023-05-09T07:05:31.905Z,47.17
2023-05-09T07:07:58.407Z,47.21
2023-05-09T07:10:25.095Z,47.24
2023-05-09T07:12:51.623Z,46.60
2023-05-09T07:15:28.806Z,46.41
2023-05-09T07:18:03.672Z,46.88
2023-05-09T07:20:30.353Z,46.12
2023-05-09T07:22:56.813Z,46.14
2023-05-09T07:25:23.257Z,45.98
2023-05-09T07:27:49.771Z,46.05
2023-05-09T07:30:16.555Z,45.88
2023-05-09T07:32:43.190Z,45.15
2023-05-09T07:35:09.739Z,45.25
2023-05-09T07:37:36.204Z,44.98
2023-05-09T07:40:03.325Z,44.84
2023-05-09T07:42:29.789Z,44.24
2023-05-09T07:44:56.227Z,43.51
2023-05-09T07:47:22.693Z,43.75
2023-05-09T07:49:49.162Z,43.73
2023-05-09T07:52:15.655Z,43.55
2023-05-09T07:54:42.268Z,42.98
2023-05-09T07:57:08.794Z,43.43
2023-05-09T07:59:35.275Z,43.68
2023-05-09T08:02:02.008Z,43.28
2023-05-09T08:04:28.510Z,43.08
2023-05-09T08:06:54.944Z,43.30
2023-05-09T08:09:21.388Z,42.50
2023-05-09T08:11:47.914Z,42.62
2023-05-09T08:14:15.624Z,42.43
2023-05-09T08:16:42.217Z,41.61
2023-05-09T08:19:08.698Z,41.26
2023-05-09T08:21:35.169Z,41.17
2023-05-09T08:24:01.829Z,41.74
2023-05-09T08:26:28.281Z,41.25
2023-05-09T08:28:54.751Z,40.79
2023-05-09T08:31:21.244Z,40.54
2023-05-09T08:33:47.713Z,41.15
2023-05-09T08:36:14.184Z,40.46
2023-05-09T08:38:40.794Z,39.59
2023-05-09T08:41:07.308Z,39.56
2023-05-09T08:43:34.341Z,39.66
2023-05-09T08:46:06.643Z,39.21
2023-05-09T08:48:36.043Z,38.84
2023-05-09T08:51:02.978Z,39.38
2023-05-09T08:53:29.486Z,39.29
2023-05-09T08:55:58.229Z,39.25
2023-05-09T08:58:24.724Z,38.81
2023-05-09T09:00:51.379Z,38.74
2023-05-09T09:03:18.030Z,38.27
2023-05-09T09:05:45.064Z,38.16
2023-05-09T09:08:14.124Z,38.47
2023-05-09T09:10:42.078Z,37.38
2023-05-09T09:13:10.067Z,36.46
2023-05-09T09:15:38.533Z,36.08
2023-05-09T09:18:08.225Z,36.11
2023-05-09T09:20:37.270Z,36.42
2023-05-09T09:23:04.447Z,37.08
2023-05-09T09:25:31.043Z,36.91
2023-05-09T09:27:57.500Z,36.97
2023-05-09T09:30:24.550Z,36.33
2023-05-09T09:32:51.125Z,36.53
2023-05-09T09:35:17.597Z,35.98
2023-05-09T09:37:44.074Z,36.10
2023-05-09T09:40:12.308Z,35.32
2023-05-09T09:42:47.853Z,34.90
2023-05-09T09:45:17.167Z,36.15
2023-05-09T09:47:45.539Z,34.96
2023-05-09T09:50:15.883Z,34.36
2023-05-09T09:52:50.019Z,34.79
2023-05-09T09:55:17.657Z,34.26
2023-05-09T09:57:44.640Z,34.58
2023-05-09T10:00:13.436Z,34.39
2023-05-09T10:02:47.346Z,34.34
2023-05-09T10:05:19.025Z,35.35
2023-05-09T10:07:45.488Z,34.64
2023-05-09T10:10:12.090Z,33.64
2023-05-09T10:12:40.474Z,33.79
2023-05-09T10:15:09.446Z,34.20
2023-05-09T10:17:36.649Z,34.21
2023-05-09T10:20:05.805Z,34.05
2023-05-09T10:22:38.188Z,34.07
2023-05-09T10:25:14.951Z,34.07
2023-05-09T10:27:45.367Z,34.41
2023-05-09T10:30:19.740Z,34.34
2023-05-09T10:33:02.864Z,34.13
2023-05-09T10:35:57.647Z,34.13
2023-05-09T10:38:24.970Z,34.22
2023-05-09T10:40:53.445Z,34.58
2023-05-09T10:43:20.767Z,34.71
2023-05-09T10:45:47.544Z,32.25
2023-05-09T10:48:14.538Z,31.18
2023-05-09T10:50:41.358Z,29.84
2023-05-09T10:53:09.591Z,29.71
2023-05-09T10:55:57.313Z,29.95
2023-05-09T10:58:24.885Z,29.72
2023-05-09T11:00:53.802Z,28.84
2023-05-09T11:03:22.330Z,28.60
2023-05-09T11:05:52.060Z,29.00
2023-05-09T11:08:25.798Z,29.70
2023-05-09T11:10:56.667Z,29.79
2023-05-09T11:13:31.252Z,29.96
2023-05-09T11:16:01.003Z,29.54
2023-05-09T11:18:28.571Z,29.57
2023-05-09T11:20:56.116Z,29.85
2023-05-09T11:23:26.910Z,29.77
2023-05-09T11:26:03.968Z,29.95
2023-05-09T11:28:35.025Z,30.85
2023-05-09T11:31:14.632Z,30.65
2023-05-09T11:33:42.961Z,30.15
2023-05-09T11:36:15.755Z,30.61
2023-05-09T11:38:42.728Z,30.73
2023-05-09T11:41:09.380Z,30.65
2023-05-09T11:43:39.624Z,30.35
2023-05-09T11:46:06.333Z,30.96
2023-05-09T11:48:40.081Z,30.84
2023-05-09T11:51:06.662Z,30.78
2023-05-09T11:53:33.397Z,30.54
2023-05-09T11:56:03.466Z,30.71
2023-05-09T11:58:30.238Z,30.91
2023-05-09T12:00:57.417Z,30.40
2023-05-09T12:03:24.014Z,30.84
2023-05-09T12:05:50.721Z,30.95
2023-05-09T12:08:17.469Z,30.71
2023-05-09T12:10:43.904Z,30.98
2023-05-09T12:13:10.540Z,31.02
2023-05-09T12:15:37.996Z,30.70
2023-05-09T12:18:06.897Z,31.69
2023-05-09T12:20:48.406Z,31.19
2023-05-09T12:23:15.003Z,31.17
2023-05-09T12:25:55.242Z,31.03
2023-05-09T12:28:25.555Z,31.22
2023-05-09T12:30:53.253Z,31.66
2023-05-09T12:33:20.247Z,31.92
2023-05-09T12:35:47.596Z,31.41
2023-05-09T12:38:20.405Z,31.83
2023-05-09T12:41:03.783Z,31.98
2023-05-09T12:43:37.712Z,31.86
2023-05-09T12:46:05.243Z,31.80
2023-05-09T12:48:37.386Z,31.66
2023-05-09T12:51:08.089Z,31.86
2023-05-09T12:53:41.465Z,32.02
2023-05-09T12:56:18.799Z,32.10
2023-05-09T12:58:53.536Z,32.83
2023-05-09T13:01:22.300Z,32.58
2023-05-09T13:03:53.476Z,31.78
2023-05-09T13:06:20.197Z,31.69
2023-05-09T13:08:57.874Z,32.06
2023-05-09T13:11:24.398Z,32.37
2023-05-09T13:13:50.844Z,32.80
2023-05-09T13:16:17.989Z,32.91
2023-05-09T13:18:44.557Z,31.83
2023-05-09T13:21:11.092Z,31.68
2023-05-09T13:23:37.586Z,30.47
2023-05-09T13:26:04.116Z,29.99
2023-05-09T13:28:30.559Z,30.55
2023-05-09T13:30:57.051Z,30.28
2023-05-09T13:33:26.397Z,30.25
2023-05-09T13:35:53.396Z,29.82
2023-05-09T13:38:19.866Z,30.46
2023-05-09T13:40:46.343Z,29.82
2023-05-09T13:43:12.836Z,29.71
2023-05-09T13:45:39.287Z,29.68
2023-05-09T13:48:06.085Z,30.25
2023-05-09T13:50:32.620Z,30.92
2023-05-09T13:52:59.070Z,31.28
2023-05-09T13:55:25.506Z,31.77
2023-05-09T13:57:51.974Z,32.09
2023-05-09T14:00:18.982Z,32.10
2023-05-09T14:02:45.747Z,32.88
2023-05-09T14:05:12.217Z,32.77
2023-05-09T14:07:41.823Z,32.67
2023-05-09T14:10:12.476Z,32.24
2023-05-09T14:12:42.199Z,31.96
2023-05-09T14:15:09.018Z,32.00
2023-05-09T14:17:35.556Z,32.58
2023-05-09T14:20:02.211Z,32.79
2023-05-09T14:22:28.717Z,32.66
2023-05-09T14:24:55.206Z,33.38
2023-05-09T14:27:21.709Z,33.48
2023-05-09T14:29:48.231Z,33.20
2023-05-09T14:32:14.804Z,33.47
2023-05-09T14:34:41.265Z,33.21
2023-05-09T14:37:07.906Z,32.10
2023-05-09T14:39:34.359Z,32.34
2023-05-09T14:42:00.796Z,31.70
2023-05-09T14:44:27.257Z,32.25
2023-05-09T14:46:53.732Z,32.35
2023-05-09T14:49:20.259Z,32.54
2023-05-09T14:51:46.695Z,32.40
2023-05-09T14:54:13.266Z,32.62
2023-05-09T14:56:39.688Z,32.54
2023-05-09T14:59:06.126Z,33.79
2023-05-09T15:01:32.663Z,33.43
2023-05-09T15:03:59.253Z,33.78
2023-05-09T15:06:25.720Z,33.52
2023-05-09T15:08:52.362Z,33.06
2023-05-09T15:11:18.878Z,33.84
2023-05-09T15:13:45.393Z,33.97
2023-05-09T15:16:11.895Z,34.28
2023-05-09T15:18:38.377Z,33.97
2023-05-09T15:21:05.174Z,34.10
2023-05-09T15:23:31.753Z,34.31
2023-05-09T15:25:58.259Z,34.48
2023-05-09T15:28:24.837Z,34.35
2023-05-09T15:30:51.361Z,34.52
2023-05-09T15:33:17.872Z,34.75
2023-05-09T15:35:44.572Z,35.06
2023-05-09T15:38:12.269Z,35.03
2023-05-09T15:40:41.998Z,34.54
2023-05-09T15:43:08.663Z,34.07
2023-05-09T15:45:35.173Z,34.51
2023-05-09T15:48:01.736Z,34.48
2023-05-09T15:50:28.262Z,34.70
2023-05-09T15:52:54.794Z,34.69
2023-05-09T15:55:21.302Z,34.07
2023-05-09T15:57:47.840Z,33.84
2023-05-09T16:00:15.221Z,33.91
2023-05-09T16:02:41.890Z,34.18
2023-05-09T16:05:08.504Z,33.97
2023-05-09T16:07:35.855Z,34.34
2023-05-09T16:10:02.771Z,34.71
2023-05-09T16:12:29.410Z,35.09
2023-05-09T16:14:55.868Z,35.52
2023-05-09T16:17:22.302Z,35.98
2023-05-09T16:19:48.810Z,36.10
2023-05-09T16:22:15.295Z,36.33
2023-05-09T16:24:41.739Z,36.38
2023-05-09T16:27:08.226Z,36.68
2023-05-09T16:29:34.769Z,36.88
2023-05-09T16:32:01.405Z,36.64
2023-05-09T16:34:28.028Z,36.33
2023-05-09T16:36:54.484Z,36.38
2023-05-09T16:39:20.953Z,36.57
2023-05-09T16:41:47.433Z,36.80
2023-05-09T16:44:13.918Z,37.18
2023-05-09T16:46:40.392Z,37.38
2023-05-09T16:49:06.918Z,36.74
2023-05-09T16:51:33.374Z,36.47
2023-05-09T16:53:59.792Z,36.66
2023-05-09T16:56:26.290Z,36.72
2023-05-09T16:58:52.745Z,36.50
2023-05-09T17:01:19.341Z,36.66
2023-05-09T17:03:45.843Z,36.52
2023-05-09T17:06:12.333Z,36.70
2023-05-09T17:08:38.825Z,37.17
2023-05-09T17:11:05.325Z,37.24
2023-05-09T17:13:31.801Z,37.54
2023-05-09T17:15:58.329Z,37.78
2023-05-09T17:18:36.091Z,37.92
2023-05-09T17:21:03.992Z,37.88
2023-05-09T17:23:30.467Z,38.40
2023-05-09T17:25:56.906Z,38.62
2023-05-09T17:28:23.392Z,38.59
2023-05-09T17:30:49.907Z,38.56
2023-05-09T17:33:16.381Z,38.76
2023-05-09T17:35:42.861Z,38.78
2023-05-09T17:38:09.321Z,39.39
2023-05-09T17:40:38.450Z,39.28
2023-05-09T17:43:04.917Z,39.63
2023-05-09T17:45:31.418Z,39.87
2023-05-09T17:47:57.960Z,39.86
2023-05-09T17:50:24.426Z,39.97
2023-05-09T17:52:50.917Z,40.30
2023-05-09T17:55:18.139Z,40.17
2023-05-09T17:57:44.755Z,40.49
2023-05-09T18:00:11.764Z,40.74
2023-05-09T18:02:38.909Z,40.87
2023-05-09T18:05:08.266Z,41.07
2023-05-09T18:07:34.964Z,41.18
2023-05-09T18:10:01.648Z,41.29
2023-05-09T18:12:28.130Z,41.52
2023-05-09T18:14:55.291Z,41.72
2023-05-09T18:17:21.928Z,41.83
2023-05-09T18:19:48.410Z,41.93
2023-05-09T18:22:17.875Z,41.82
2023-05-09T18:24:44.440Z,41.91
2023-05-09T18:27:10.926Z,41.90
2023-05-09T18:29:37.570Z,41.85
2023-05-09T18:32:04.135Z,42.24
2023-05-09T18:34:30.948Z,42.23
2023-05-09T18:36:57.420Z,42.32
2023-05-09T18:39:23.873Z,42.45
2023-05-09T18:41:50.328Z,42.64
2023-05-09T18:44:16.875Z,42.76
2023-05-09T18:46:43.396Z,42.96
2023-05-09T18:49:09.893Z,42.81
2023-05-09T18:51:36.386Z,42.64
2023-05-09T18:54:02.883Z,42.94
2023-05-09T18:56:29.480Z,43.29
2023-05-09T18:58:56.143Z,43.28
2023-05-09T19:01:22.879Z,43.29
2023-05-09T19:03:49.431Z,43.49
2023-05-09T19:06:16.007Z,43.48
2023-05-09T19:08:43.439Z,43.69
2023-05-09T19:11:10.354Z,44.06
2023-05-09T19:13:37.184Z,44.21
2023-05-09T19:16:07.991Z,44.48
2023-05-09T19:18:34.674Z,44.81
2023-05-09T19:21:01.240Z,44.90
2023-05-09T19:23:27.751Z,44.87
2023-05-09T19:25:54.469Z,45.07
2023-05-09T19:28:21.452Z,45.19
2023-05-09T19:30:48.007Z,45.22
2023-05-09T19:33:14.559Z,45.45
2023-05-09T19:35:41.875Z,45.53
2023-05-09T19:38:08.605Z,45.56
2023-05-09T19:40:35.201Z,45.73
2023-05-09T19:43:01.861Z,46.04
2023-05-09T19:45:28.405Z,46.43
2023-05-09T19:47:55.031Z,46.62
2023-05-09T19:50:21.989Z,46.66
2023-05-09T19:52:48.576Z,46.91
2023-05-09T19:55:15.153Z,47.02
2023-05-09T19:57:41.628Z,47.19
2023-05-09T20:00:08.703Z,47.41
2023-05-09T20:02:35.351Z,47.44
2023-05-09T20:05:01.968Z,47.83
2023-05-09T20:07:28.457Z,48.03
2023-05-09T20:09:54.880Z,48.00
2023-05-09T20:12:21.352Z,48.24
2023-05-09T20:14:47.859Z,48.35
2023-05-09T20:17:14.298Z,48.42
2023-05-09T20:19:40.774Z,48.61
2023-05-09T20:22:07.226Z,48.58
2023-05-09T20:24:33.726Z,48.56
2023-05-09T20:27:00.312Z,48.76
2023-05-09T20:29:26.844Z,48.73
2023-05-09T20:31:53.352Z,48.92
2023-05-09T20:34:20.251Z,48.97
2023-05-09T20:36:48.061Z,49.09
2023-05-09T20:39:14.513Z,49.10
2023-05-09T20:41:40.964Z,49.29
2023-05-09T20:44:07.536Z,49.28
2023-05-09T20:46:34.033Z,49.37
2023-05-09T20:49:00.636Z,49.39
2023-05-09T20:51:27.090Z,49.59
2023-05-09T20:53:53.548Z,49.73
2023-05-09T20:56:20.028Z,49.92
2023-05-09T20:58:46.503Z,50.14
2023-05-09T21:01:12.991Z,50.34
2023-05-09T21:03:39.508Z,50.31
2023-05-09T21:06:06.032Z,50.59
2023-05-09T21:08:32.489Z,50.90
2023-05-09T21:10:58.991Z,51.01
2023-05-09T21:13:25.589Z,51.19
2023-05-09T21:15:52.243Z,51.26
2023-05-09T21:18:18.940Z,51.47
2023-05-09T21:20:45.445Z,51.87
2023-05-09T21:23:12.173Z,51.98
2023-05-09T21:25:38.624Z,52.11
2023-05-09T21:28:05.269Z,52.44
2023-05-09T21:30:31.772Z,52.54
2023-05-09T21:32:58.226Z,52.77
2023-05-09T21:35:24.795Z,52.79
2023-05-09T21:37:51.226Z,52.94
2023-05-09T21:40:18.124Z,53.17
2023-05-09T21:42:44.730Z,53.17
2023-05-09T21:45:11.441Z,53.62
2023-05-09T21:47:38.270Z,53.58
2023-05-09T21:50:05.746Z,53.70
2023-05-09T21:52:32.243Z,53.99
2023-05-09T21:54:59.317Z,53.97
2023-05-09T21:57:25.790Z,54.22
2023-05-09T21:59:52.227Z,54.33
2023-05-09T22:02:18.781Z,54.34
2023-05-09T22:04:45.380Z,54.50
2023-05-09T22:07:12.704Z,54.63
2023-05-09T22:09:39.154Z,54.62
2023-05-09T22:12:05.777Z,54.81
2023-05-09T22:14:33.534Z,54.77
2023-05-09T22:17:03.569Z,54.94
2023-05-09T22:19:30.270Z,54.96
2023-05-09T22:21:56.754Z,54.84
2023-05-09T22:24:23.219Z,55.04
2023-05-09T22:26:49.680Z,55.14
2023-05-09T22:29:16.281Z,55.10
2023-05-09T22:31:42.811Z,55.23
2023-05-09T22:34:09.560Z,55.32
2023-05-09T22:36:36.063Z,55.45
2023-05-09T22:39:02.559Z,55.50
2023-05-09T22:41:29.076Z,55.62
2023-05-09T22:43:55.525Z,55.69
2023-05-09T22:46:22.110Z,55.82
2023-05-09T22:48:48.590Z,55.79
2023-05-09T22:51:15.177Z,55.96
2023-05-09T22:53:41.673Z,56.20
2023-05-09T22:56:08.201Z,56.12
2023-05-09T22:58:34.980Z,56.18
2023-05-09T23:01:01.514Z,56.43
2023-05-09T23:03:28.104Z,56.37
2023-05-09T23:05:54.652Z,56.62
2023-05-09T23:08:21.120Z,56.84
2023-05-09T23:10:47.590Z,56.65
2023-05-09T23:13:14.070Z,56.90
2023-05-09T23:15:40.601Z,57.19
2023-05-09T23:18:07.280Z,57.28
2023-05-09T23:20:33.767Z,57.37
2023-05-09T23:23:00.227Z,57.34
2023-05-09T23:25:26.680Z,57.78
2023-05-09T23:27:53.199Z,58.14
2023-05-09T23:30:19.642Z,58.18
2023-05-09T23:32:46.249Z,58.38
2023-05-09T23:35:12.806Z,58.54
2023-05-09T23:37:39.325Z,58.79
2023-05-09T23:40:06.419Z,58.90
2023-05-09T23:42:32.895Z,59.10
2023-05-09T23:44:59.382Z,59.36
2023-05-09T23:47:25.925Z,59.46
2023-05-09T23:49:52.441Z,59.55
2023-05-09T23:52:18.902Z,59.70
2023-05-09T23:54:45.401Z,59.84
2023-05-09T23:57:11.904Z,59.92
2023-05-09T23:59:38.385Z,60.15
